Aeroporto :
LOGIN :

Iscrizione | Disclaimer

   EN    FR    IT 

 










Sommario :    VFR   VFR Marginale   IFR   IFR Intensivo   IFR Molto Intensivo
Visibilità : 
Base nubi : 
>= 8 km
>= 3000ft
5 / 8 km
1000 / 3000 ft
1500m / 5 km
500 / 1000 ft
800 / 1500m
200 / 500 ft
< 800m
< 200 ft
Simboli :   Temporali  Nebbia  Neve Forte  Precipitazioni Forti  Vento > 20 kt
SIGMETs :   Varie  Temporali  Ghiacco  Turbolenza  Onda orograficha  Ceneri Vulcaniche






- Altitudine del aeroporto : 17 ft
- Codice IATA : GRQ


EHGG - Groningen Eelde

ULTIMO METAR :
  • 111355Z AUTO VRB02KT 9999 FEW022CB SCT029 17/11 Q1024 NOSIG

METARs OBSOLETI :
  • 111325Z AUTO VRB02KT 9999 FEW023CB SCT035 16/10 Q1024 NOSIG
  • 111255Z AUTO 19003KT 150V230 9999 FEW048 15/11 Q1024 REDZ NOSIG
  • 111225Z AUTO 29007KT 250V320 9999 -RA FEW023CB 16/10 Q1024 TEMPO 4000 SHRA
  • 111155Z AUTO 31003KT 230V360 9999 FEW023CB 16/11 Q1024 TEMPO 4000 SHRA
  • 111125Z AUTO 23008KT 210V280 9999 SHRA FEW015CB SCT020 BKN026 14/11 Q1024 RERA TEMPO 4000 SHRA

TAF TAF EHGG
Valido dal 11 a 12 ore il 12 a 18 ore UTC


111058Z 1112/1218 28008KT 9999 SCT030
PROB30
TEMPO 1112/1117 29010G20KT 6000 SHRA SCT025CB
BECMG 1122/1201 VRB03KT 6000 BCFG
TEMPO 1200/1205 0300
PROB30 1202/1206 9999 NSW BKN030
BECMG 1204/1206 9999 NSW



MetMap, La meteo Aeronautica in un colpo d'occhio ! - Copyright ORBIFLY Dicembre 2007 - Disclaimer

ORBIFLY MET'MAP TEAM :

Programmazione e sviluppo : Alexandra Zaïnal
Concezione : Baudouin d'Aumeries
Aiuto per la programmazione : Marc-Olivier Méhu
Supporto tecnico e logistico : Manuel Goepfert
Aiuto per la traduzione : Arnaldo La Scala

Contatto : metmap@orbifly.com




FONTI E CREDITI :

   NOAA